createdAt,value
2019-03-09T00:00:16.732Z,4.27
2019-03-09T00:02:46.112Z,11.20
2019-03-09T00:05:15.813Z,5.47
2019-03-09T00:07:45.129Z,4.33
2019-03-09T00:10:14.488Z,5.43
2019-03-09T00:12:43.883Z,6.10
2019-03-09T00:15:13.302Z,10.73
2019-03-09T00:17:42.791Z,6.47
2019-03-09T00:20:12.107Z,8.00
2019-03-09T00:22:43.062Z,5.53
2019-03-09T00:25:25.908Z,7.60
2019-03-09T00:28:17.316Z,7.43
2019-03-09T00:30:56.076Z,4.37
2019-03-09T00:33:25.360Z,6.50
2019-03-09T00:35:54.662Z,8.10
2019-03-09T00:38:24.013Z,9.17
2019-03-09T00:40:53.386Z,9.00
2019-03-09T00:43:22.755Z,6.33
2019-03-09T00:45:52.055Z,11.60
2019-03-09T00:48:21.370Z,14.13
2019-03-09T00:50:51.046Z,7.93
2019-03-09T00:53:20.380Z,6.77
2019-03-09T00:55:49.685Z,7.87
2019-03-09T00:58:19.019Z,4.63
2019-03-09T01:00:48.291Z,9.63
2019-03-09T01:03:17.609Z,8.00
2019-03-09T01:05:46.914Z,7.53
2019-03-09T01:08:16.264Z,5.80
2019-03-09T01:10:45.542Z,7.00
2019-03-09T01:13:14.951Z,8.07
2019-03-09T01:15:44.609Z,4.50
2019-03-09T01:18:13.912Z,7.10
2019-03-09T01:20:43.233Z,7.60
2019-03-09T01:23:12.521Z,10.60
2019-03-09T01:25:41.784Z,5.83
2019-03-09T01:28:11.075Z,6.43
2019-03-09T01:30:40.360Z,4.30
2019-03-09T01:33:09.682Z,4.90
2019-03-09T01:35:39.051Z,8.33
2019-03-09T01:38:08.385Z,5.27
2019-03-09T01:40:37.705Z,6.90
2019-03-09T01:43:07.013Z,3.13
2019-03-09T01:45:36.336Z,5.77
2019-03-09T01:48:05.688Z,4.53
2019-03-09T01:50:34.980Z,4.67
2019-03-09T01:53:04.344Z,4.60
2019-03-09T01:55:33.716Z,5.63
2019-03-09T01:58:03.043Z,5.83
2019-03-09T02:00:32.361Z,3.53
2019-03-09T02:03:01.628Z,4.97
2019-03-09T02:05:30.942Z,5.10
2019-03-09T02:08:00.233Z,9.00
2019-03-09T02:10:29.840Z,3.53
2019-03-09T02:12:59.145Z,3.90
2019-03-09T02:15:28.444Z,3.10
2019-03-09T02:17:57.715Z,6.50
2019-03-09T02:20:27.169Z,4.60
2019-03-09T02:22:56.476Z,5.50
2019-03-09T02:25:25.781Z,4.80
2019-03-09T02:27:55.049Z,3.13
2019-03-09T02:30:24.984Z,4.37
2019-03-09T02:32:54.263Z,3.00
2019-03-09T02:35:23.610Z,6.20
2019-03-09T02:37:52.949Z,3.93
2019-03-09T02:40:25.364Z,3.40
2019-03-09T02:42:54.676Z,3.93
2019-03-09T02:45:24.338Z,5.70
2019-03-09T02:47:53.626Z,2.87
2019-03-09T02:50:23.129Z,3.37
2019-03-09T02:52:52.733Z,5.03
2019-03-09T02:55:22.102Z,3.00
2019-03-09T02:57:51.410Z,4.80
2019-03-09T03:00:20.758Z,3.60
2019-03-09T03:02:59.093Z,2.07
2019-03-09T03:05:28.403Z,3.30
2019-03-09T03:07:57.701Z,4.03
2019-03-09T03:10:28.168Z,2.33
2019-03-09T03:12:57.867Z,3.90
2019-03-09T03:15:32.653Z,1.73
2019-03-09T03:18:01.989Z,4.57
2019-03-09T03:20:31.737Z,1.60
2019-03-09T03:23:01.125Z,2.43
2019-03-09T03:25:30.474Z,3.50
2019-03-09T03:27:59.844Z,1.63
2019-03-09T03:30:29.212Z,1.80
2019-03-09T03:32:59.044Z,2.80
2019-03-09T03:35:28.373Z,1.60
2019-03-09T03:37:57.659Z,2.13
2019-03-09T03:40:26.989Z,1.70
2019-03-09T03:42:56.284Z,1.80
2019-03-09T03:45:25.930Z,1.67
2019-03-09T03:47:55.254Z,2.60
2019-03-09T03:50:24.541Z,1.93
2019-03-09T03:52:53.931Z,1.90
2019-03-09T03:55:23.236Z,2.47
2019-03-09T03:57:52.798Z,1.80
2019-03-09T04:00:22.239Z,1.40
2019-03-09T04:02:51.539Z,3.40
2019-03-09T04:05:20.820Z,1.30
2019-03-09T04:07:50.137Z,1.83
2019-03-09T04:10:19.549Z,1.87
2019-03-09T04:12:49.597Z,2.07
2019-03-09T04:15:18.879Z,1.57
2019-03-09T04:18:07.263Z,1.97
2019-03-09T04:20:36.571Z,1.50
2019-03-09T04:23:05.782Z,2.90
2019-03-09T04:25:35.081Z,4.53
2019-03-09T04:28:04.849Z,2.30
2019-03-09T04:30:34.189Z,2.60
2019-03-09T04:33:03.536Z,3.83
2019-03-09T04:35:34.033Z,2.40
2019-03-09T04:38:03.335Z,3.07
2019-03-09T04:40:33.044Z,4.20
2019-03-09T04:43:02.357Z,3.47
2019-03-09T04:45:31.756Z,4.77
2019-03-09T04:48:01.097Z,3.80
2019-03-09T04:50:30.396Z,6.00
2019-03-09T04:52:59.708Z,6.37
2019-03-09T04:55:29.036Z,4.20
2019-03-09T04:57:58.348Z,4.30
2019-03-09T05:00:27.671Z,6.17
2019-03-09T05:02:57.000Z,4.73
2019-03-09T05:05:26.319Z,4.57
2019-03-09T05:07:59.697Z,4.20
2019-03-09T05:10:52.662Z,5.73
2019-03-09T05:13:28.324Z,4.40
2019-03-09T05:15:57.650Z,6.50
2019-03-09T05:18:26.987Z,5.77
2019-03-09T05:20:56.303Z,5.00
2019-03-09T05:23:25.695Z,5.97
2019-03-09T05:25:56.283Z,6.27
2019-03-09T05:28:25.671Z,7.67
2019-03-09T05:30:55.072Z,5.80
2019-03-09T05:33:24.428Z,6.20
2019-03-09T05:35:53.816Z,6.17
2019-03-09T05:38:23.128Z,6.73
2019-03-09T05:40:52.452Z,6.50
2019-03-09T05:43:21.741Z,5.50
2019-03-09T05:45:51.092Z,6.80
2019-03-09T05:48:20.503Z,7.70
2019-03-09T05:50:49.798Z,5.97
2019-03-09T05:53:21.290Z,7.93
2019-03-09T05:55:50.562Z,6.33
2019-03-09T05:58:19.782Z,6.67
2019-03-09T06:00:49.082Z,7.37
2019-03-09T06:03:18.716Z,7.00
2019-03-09T06:05:50.443Z,8.00
2019-03-09T06:08:19.755Z,6.97
2019-03-09T06:10:49.176Z,8.13
2019-03-09T06:13:18.451Z,7.70
2019-03-09T06:15:47.880Z,11.97
2019-03-09T06:18:17.160Z,5.70
2019-03-09T06:20:46.484Z,7.83
2019-03-09T06:23:15.891Z,5.73
2019-03-09T06:25:45.290Z,7.67
2019-03-09T06:28:14.605Z,6.80
2019-03-09T06:30:43.921Z,8.20
2019-03-09T06:33:30.306Z,5.50
2019-03-09T06:36:24.889Z,9.30
2019-03-09T06:39:08.973Z,8.93
2019-03-09T06:41:48.104Z,8.70
2019-03-09T06:44:17.452Z,6.00
2019-03-09T06:46:46.645Z,9.10
2019-03-09T06:49:16.375Z,9.40
2019-03-09T06:51:45.687Z,6.27
2019-03-09T06:54:15.025Z,11.87
2019-03-09T06:56:44.359Z,11.13
2019-03-09T06:59:13.701Z,10.77
2019-03-09T07:01:43.367Z,9.67
2019-03-09T07:04:12.681Z,6.37
2019-03-09T07:07:01.028Z,7.17
2019-03-09T07:09:30.385Z,10.50
2019-03-09T07:11:59.751Z,9.00
2019-03-09T07:15:18.454Z,10.23
2019-03-09T07:17:48.441Z,9.10
2019-03-09T07:20:18.001Z,8.23
2019-03-09T07:22:47.364Z,6.63
2019-03-09T07:25:16.668Z,8.10
2019-03-09T07:27:56.235Z,11.67
2019-03-09T07:30:25.530Z,10.77
2019-03-09T07:32:54.893Z,8.80
2019-03-09T07:35:24.179Z,7.20
2019-03-09T07:37:53.506Z,8.77
2019-03-09T07:40:22.787Z,9.33
2019-03-09T07:42:52.399Z,14.53
2019-03-09T07:45:45.421Z,7.73
2019-03-09T07:48:14.749Z,9.00
2019-03-09T07:50:44.386Z,6.17
2019-03-09T07:53:16.844Z,6.13
2019-03-09T07:55:46.213Z,5.33
2019-03-09T07:58:15.492Z,5.40
2019-03-09T08:00:45.256Z,7.90
2019-03-09T08:03:14.884Z,10.50
2019-03-09T08:05:44.220Z,5.53
2019-03-09T08:08:14.288Z,17.80
2019-03-09T08:10:43.626Z,37.47
2019-03-09T08:13:13.293Z,13.53
2019-03-09T08:15:43.031Z,20.43
2019-03-09T08:18:12.343Z,12.07
2019-03-09T08:20:41.767Z,10.23
2019-03-09T08:23:11.069Z,11.60
2019-03-09T08:25:40.457Z,12.37
2019-03-09T08:28:10.208Z,9.73
2019-03-09T08:30:39.513Z,14.20
2019-03-09T08:33:09.153Z,10.70
2019-03-09T08:35:38.522Z,10.93
2019-03-09T08:38:07.888Z,7.33
2019-03-09T08:40:37.209Z,9.40
2019-03-09T08:43:06.588Z,8.00
2019-03-09T08:45:35.898Z,7.10
2019-03-09T08:48:05.410Z,5.87
2019-03-09T08:50:34.732Z,10.90
2019-03-09T08:53:04.061Z,7.73
2019-03-09T08:55:33.346Z,8.17
2019-03-09T08:58:02.762Z,4.50
2019-03-09T09:00:32.996Z,7.83
2019-03-09T09:03:02.400Z,5.23
2019-03-09T09:05:31.731Z,9.23
2019-03-09T09:08:03.484Z,4.70
2019-03-09T09:10:32.120Z,10.37
2019-03-09T09:13:01.478Z,5.63
2019-03-09T09:15:30.795Z,5.83
2019-03-09T09:18:00.132Z,4.30
2019-03-09T09:20:29.463Z,10.30
2019-03-09T09:22:58.763Z,10.20
2019-03-09T09:25:28.091Z,3.20
2019-03-09T09:27:57.404Z,5.00
2019-03-09T09:30:27.427Z,7.20
2019-03-09T09:32:56.783Z,4.73
2019-03-09T09:35:26.091Z,7.73
2019-03-09T09:37:55.498Z,6.47
2019-03-09T09:40:24.980Z,5.50
2019-03-09T09:42:55.319Z,11.50
2019-03-09T09:45:24.747Z,8.33
2019-03-09T09:47:54.061Z,6.20
2019-03-09T09:50:23.472Z,12.13
2019-03-09T09:52:52.646Z,3.80
2019-03-09T09:55:22.055Z,10.27
2019-03-09T09:57:51.350Z,7.17
2019-03-09T10:00:27.384Z,3.50
2019-03-09T10:02:56.746Z,4.83
2019-03-09T10:05:26.154Z,11.50
2019-03-09T10:07:55.434Z,7.23
2019-03-09T10:10:24.704Z,7.20
2019-03-09T10:12:55.884Z,10.17
2019-03-09T10:15:26.009Z,5.20
2019-03-09T10:17:55.347Z,8.07
2019-03-09T10:20:24.714Z,10.30
2019-03-09T10:23:03.590Z,11.43
2019-03-09T10:25:25.413Z,5.27
2019-03-09T10:27:54.698Z,7.37
2019-03-09T10:30:24.220Z,4.30
2019-03-09T10:32:53.683Z,4.70
2019-03-09T10:35:22.993Z,6.07
2019-03-09T10:37:52.384Z,8.03
2019-03-09T10:40:21.678Z,4.93
2019-03-09T10:42:50.975Z,4.93
2019-03-09T10:45:20.399Z,3.30
2019-03-09T10:47:49.689Z,2.90
2019-03-09T10:50:19.028Z,5.40
2019-03-09T10:52:48.488Z,7.10
2019-03-09T10:55:19.636Z,4.10
2019-03-09T10:57:49.018Z,5.60
2019-03-09T11:00:20.649Z,5.77
2019-03-09T11:02:49.976Z,2.90
2019-03-09T11:05:19.306Z,2.83
2019-03-09T11:07:48.598Z,5.00
2019-03-09T11:10:17.847Z,5.43
2019-03-09T11:12:47.185Z,5.43
2019-03-09T11:15:16.599Z,7.93
2019-03-09T11:17:45.882Z,2.90
2019-03-09T11:20:15.422Z,7.17
2019-03-09T11:22:44.823Z,6.00
2019-03-09T11:25:14.459Z,5.07
2019-03-09T11:27:43.653Z,6.20
2019-03-09T11:30:18.360Z,5.50
2019-03-09T11:32:47.724Z,10.90
2019-03-09T11:35:17.054Z,9.13
2019-03-09T11:37:46.467Z,4.10
2019-03-09T11:40:15.979Z,5.20
2019-03-09T11:42:45.339Z,8.73
2019-03-09T11:45:14.974Z,7.20
2019-03-09T11:47:44.289Z,9.80
2019-03-09T11:50:14.767Z,7.10
2019-03-09T11:52:44.166Z,5.80
2019-03-09T11:55:13.791Z,4.83
2019-03-09T11:57:43.198Z,18.17
2019-03-09T12:00:14.156Z,5.50
2019-03-09T12:02:43.460Z,6.07
2019-03-09T12:05:12.749Z,3.53
2019-03-09T12:07:42.080Z,6.87
2019-03-09T12:10:13.411Z,6.77
2019-03-09T12:12:42.692Z,10.93
2019-03-09T12:15:12.054Z,4.20
2019-03-09T12:17:41.368Z,4.40
2019-03-09T12:20:10.823Z,6.10
2019-03-09T12:22:40.148Z,6.20
2019-03-09T12:25:09.986Z,2.90
2019-03-09T12:27:39.352Z,4.17
2019-03-09T12:30:10.572Z,4.50
2019-03-09T12:32:39.878Z,4.00
2019-03-09T12:35:11.780Z,5.00
2019-03-09T12:37:41.543Z,7.90
2019-03-09T12:40:12.896Z,5.00
2019-03-09T12:42:42.205Z,7.73
2019-03-09T12:45:12.077Z,7.30
2019-03-09T12:47:41.820Z,14.47
2019-03-09T12:50:13.724Z,12.83
2019-03-09T12:52:43.010Z,14.20
2019-03-09T12:55:12.944Z,16.10
2019-03-09T12:57:42.280Z,10.27
2019-03-09T13:00:14.132Z,13.67
2019-03-09T13:02:43.440Z,14.53
2019-03-09T13:05:12.772Z,16.60
2019-03-09T13:07:42.124Z,17.27
2019-03-09T13:10:11.872Z,14.67
2019-03-09T13:12:41.238Z,18.00
2019-03-09T13:15:11.112Z,11.03
2019-03-09T13:17:40.556Z,15.17
2019-03-09T13:20:10.036Z,11.83
2019-03-09T13:22:39.417Z,15.03
2019-03-09T13:25:09.405Z,15.50
2019-03-09T13:27:38.764Z,13.90
2019-03-09T13:30:10.172Z,14.77
2019-03-09T13:32:39.569Z,20.07
2019-03-09T13:35:09.155Z,14.63
2019-03-09T13:37:38.476Z,13.57
2019-03-09T13:40:08.373Z,19.90
2019-03-09T13:42:37.778Z,15.23
2019-03-09T13:45:08.227Z,23.57
2019-03-09T13:47:37.597Z,23.57
2019-03-09T13:50:07.883Z,19.83
2019-03-09T13:52:37.251Z,22.93
2019-03-09T13:55:07.296Z,24.50
2019-03-09T13:57:37.114Z,16.00
2019-03-09T14:00:08.070Z,18.30
2019-03-09T14:02:38.769Z,26.07
2019-03-09T14:05:08.249Z,20.00
2019-03-09T14:07:38.285Z,26.33
2019-03-09T14:10:09.078Z,19.87
2019-03-09T14:12:38.855Z,21.10
2019-03-09T14:15:11.834Z,21.40
2019-03-09T14:17:41.814Z,23.40
2019-03-09T14:20:13.475Z,23.17
2019-03-09T14:22:45.184Z,30.50
2019-03-09T14:25:16.157Z,24.63
2019-03-09T14:27:48.143Z,23.33
2019-03-09T14:30:18.950Z,28.10
2019-03-09T14:32:48.783Z,18.00
2019-03-09T14:35:19.057Z,21.70
2019-03-09T14:37:48.824Z,16.23
2019-03-09T14:40:18.648Z,15.00
2019-03-09T14:42:48.594Z,24.33
2019-03-09T14:45:17.917Z,19.43
2019-03-09T14:47:47.272Z,26.93
2019-03-09T14:50:16.760Z,22.90
2019-03-09T14:52:46.276Z,28.80
2019-03-09T14:55:15.596Z,17.50
2019-03-09T14:57:45.024Z,17.27
2019-03-09T15:00:18.860Z,21.53
2019-03-09T15:02:48.258Z,23.30
2019-03-09T15:05:17.608Z,24.03
2019-03-09T15:07:46.898Z,14.30
2019-03-09T15:10:16.768Z,23.73
2019-03-09T15:12:46.087Z,18.57
2019-03-09T15:15:15.735Z,10.30
2019-03-09T15:17:45.104Z,18.00
2019-03-09T15:20:14.782Z,14.97
2019-03-09T15:22:44.248Z,25.00
2019-03-09T15:25:14.173Z,23.93
2019-03-09T15:27:43.623Z,10.90
2019-03-09T15:30:14.599Z,13.47
2019-03-09T15:32:44.072Z,15.50
2019-03-09T15:35:13.606Z,17.93
2019-03-09T15:37:42.951Z,16.70
2019-03-09T15:40:12.703Z,16.47
2019-03-09T15:42:42.106Z,10.67
2019-03-09T15:45:11.877Z,18.80
2019-03-09T15:47:41.396Z,22.70
2019-03-09T15:50:11.555Z,28.70
2019-03-09T15:52:42.071Z,11.37
2019-03-09T15:55:12.219Z,19.73
2019-03-09T15:57:42.957Z,21.90
2019-03-09T16:00:17.900Z,18.10
2019-03-09T16:02:47.279Z,11.33
2019-03-09T16:05:16.959Z,19.87
2019-03-09T16:07:46.392Z,20.67
2019-03-09T16:10:16.129Z,22.17
2019-03-09T16:12:45.475Z,14.23
2019-03-09T16:15:14.837Z,29.73
2019-03-09T16:17:44.202Z,18.47
2019-03-09T16:20:15.255Z,17.20
2019-03-09T16:22:45.087Z,19.20
2019-03-09T16:25:14.445Z,22.57
2019-03-09T16:27:43.714Z,12.70
2019-03-09T16:30:15.804Z,12.83
2019-03-09T16:32:45.157Z,21.37
2019-03-09T16:35:14.578Z,23.67
2019-03-09T16:37:43.952Z,17.00
2019-03-09T16:40:14.659Z,21.37
2019-03-09T16:42:44.024Z,18.63
2019-03-09T16:45:13.555Z,23.27
2019-03-09T16:47:42.925Z,32.83
2019-03-09T16:50:12.899Z,23.10
2019-03-09T16:52:42.243Z,31.60
2019-03-09T16:55:12.413Z,25.63
2019-03-09T16:57:41.752Z,30.60
2019-03-09T17:00:16.665Z,23.63
2019-03-09T17:02:46.192Z,19.83
2019-03-09T17:05:15.569Z,25.70
2019-03-09T17:07:45.257Z,16.30
2019-03-09T17:10:15.158Z,24.13
2019-03-09T17:12:44.482Z,19.43
2019-03-09T17:15:14.640Z,40.30
2019-03-09T17:17:43.972Z,26.60
2019-03-09T17:20:14.095Z,28.90
2019-03-09T17:22:44.029Z,17.10
2019-03-09T17:25:13.855Z,16.40
2019-03-09T17:27:43.481Z,22.10
2019-03-09T17:30:15.311Z,18.03
2019-03-09T17:32:44.596Z,21.33
2019-03-09T17:35:14.562Z,24.53
2019-03-09T17:37:43.878Z,20.60
2019-03-09T17:40:13.531Z,22.93
2019-03-09T17:42:43.337Z,26.90
2019-03-09T17:45:17.437Z,29.77
2019-03-09T17:47:46.958Z,40.47
2019-03-09T17:50:16.565Z,39.63
2019-03-09T17:52:45.916Z,37.43
2019-03-09T17:55:15.273Z,63.53
2019-03-09T17:57:44.638Z,30.47
2019-03-09T18:00:16.378Z,34.07
2019-03-09T18:02:45.785Z,22.17
2019-03-09T18:05:15.109Z,24.90
2019-03-09T18:07:44.423Z,17.23
2019-03-09T18:10:17.498Z,35.33
2019-03-09T18:12:46.791Z,36.07
2019-03-09T18:15:16.117Z,29.20
2019-03-09T18:17:45.445Z,25.10
2019-03-09T18:20:15.209Z,20.57
2019-03-09T18:22:44.529Z,24.57
2019-03-09T18:25:13.844Z,28.87
2019-03-09T18:27:43.161Z,29.13
2019-03-09T18:33:18.336Z,30.13
2019-03-09T18:35:47.642Z,29.37
2019-03-09T18:38:17.507Z,22.67
2019-03-09T18:40:46.788Z,25.63
2019-03-09T18:43:16.145Z,15.83
2019-03-09T18:45:45.484Z,23.70
2019-03-09T18:48:14.728Z,19.50
2019-03-09T18:50:44.087Z,20.30
2019-03-09T18:53:13.431Z,24.43
2019-03-09T18:55:42.772Z,23.20
2019-03-09T18:58:41.185Z,27.70
2019-03-09T19:01:10.585Z,25.13
2019-03-09T19:03:39.868Z,18.53
2019-03-09T19:06:09.187Z,18.47
2019-03-09T19:08:38.472Z,27.60
2019-03-09T19:11:07.736Z,16.40
2019-03-09T19:13:37.028Z,20.93
2019-03-09T19:16:06.651Z,12.07
2019-03-09T19:18:36.000Z,15.07
2019-03-09T19:21:05.379Z,13.00
2019-03-09T19:23:34.713Z,19.27
2019-03-09T19:26:04.039Z,18.80
2019-03-09T19:28:33.421Z,19.67
2019-03-09T19:31:02.763Z,14.40
2019-03-09T19:33:32.097Z,21.00
2019-03-09T19:36:01.432Z,17.30
2019-03-09T19:38:30.760Z,18.13
2019-03-09T19:41:00.105Z,15.67
2019-03-09T19:43:29.455Z,16.83
2019-03-09T19:45:58.741Z,15.97
2019-03-09T19:48:28.531Z,17.67
2019-03-09T19:50:57.849Z,23.70
2019-03-09T19:53:27.148Z,23.10
2019-03-09T19:55:56.477Z,17.83
2019-03-09T19:58:25.838Z,29.60
2019-03-09T20:00:55.169Z,28.23
2019-03-09T20:03:24.790Z,16.83
2019-03-09T20:05:55.627Z,17.13
2019-03-09T20:08:25.336Z,20.17
2019-03-09T20:10:55.316Z,25.97
2019-03-09T20:13:24.613Z,21.47
2019-03-09T20:15:54.330Z,41.90
2019-03-09T20:18:23.728Z,18.03
2019-03-09T20:20:53.081Z,25.23
2019-03-09T20:23:22.456Z,20.90
2019-03-09T20:25:51.883Z,31.73
2019-03-09T20:28:21.275Z,35.27
2019-03-09T20:30:50.673Z,31.70
2019-03-09T20:33:20.021Z,24.87
2019-03-09T20:35:49.350Z,28.93
2019-03-09T20:38:19.148Z,30.17
2019-03-09T20:40:48.532Z,28.47
2019-03-09T20:43:17.908Z,32.53
2019-03-09T20:45:47.655Z,27.13
2019-03-09T20:48:17.048Z,21.73
2019-03-09T20:50:46.753Z,23.50
2019-03-09T20:53:16.098Z,36.40
2019-03-09T20:55:45.397Z,29.23
2019-03-09T20:58:14.679Z,25.30
2019-03-09T21:00:44.031Z,36.27
2019-03-09T21:03:13.377Z,24.00
2019-03-09T21:05:42.694Z,40.03
2019-03-09T21:08:12.034Z,31.70
2019-03-09T21:10:41.529Z,36.60
2019-03-09T21:13:10.878Z,28.83
2019-03-09T21:15:40.377Z,23.57
2019-03-09T21:18:10.518Z,25.10
2019-03-09T21:20:40.593Z,45.10
2019-03-09T21:23:10.520Z,18.93
2019-03-09T21:25:40.228Z,30.93
2019-03-09T21:28:09.898Z,40.10
2019-03-09T21:30:39.266Z,25.50
2019-03-09T21:33:08.642Z,32.00
2019-03-09T21:35:38.630Z,38.67
2019-03-09T21:38:08.057Z,31.23
2019-03-09T21:40:37.415Z,34.20
2019-03-09T21:43:06.865Z,21.07
2019-03-09T21:45:36.215Z,22.53
2019-03-09T21:48:05.645Z,46.20
2019-03-09T21:50:34.984Z,26.40
2019-03-09T21:53:04.334Z,30.40
2019-03-09T21:55:33.670Z,39.03
2019-03-09T21:58:03.016Z,36.17
2019-03-09T22:00:32.346Z,38.40
2019-03-09T22:03:01.749Z,29.70
2019-03-09T22:05:31.514Z,27.17
2019-03-09T22:08:00.891Z,36.83
2019-03-09T22:10:30.212Z,29.83
2019-03-09T22:12:59.901Z,33.20
2019-03-09T22:15:29.245Z,27.00
2019-03-09T22:17:58.577Z,38.93
2019-03-09T22:20:27.866Z,26.63
2019-03-09T22:22:57.180Z,31.47
2019-03-09T22:25:26.485Z,22.40
2019-03-09T22:27:56.997Z,32.30
2019-03-09T22:30:28.586Z,26.97
2019-03-09T22:32:57.893Z,27.57
2019-03-09T22:35:27.181Z,32.57
2019-03-09T22:37:56.548Z,27.73
2019-03-09T22:40:25.900Z,22.47
2019-03-09T22:42:55.258Z,24.67
2019-03-09T22:45:24.538Z,27.60
2019-03-09T22:47:53.831Z,21.57
2019-03-09T22:50:23.188Z,19.20
2019-03-09T22:52:52.528Z,19.87
2019-03-09T22:55:21.988Z,32.83
2019-03-09T22:57:51.287Z,26.23
2019-03-09T23:00:21.791Z,22.27
2019-03-09T23:02:51.184Z,24.47
2019-03-09T23:05:21.309Z,21.30
2019-03-09T23:07:50.747Z,20.40
2019-03-09T23:10:20.048Z,22.13
2019-03-09T23:12:49.409Z,43.73
2019-03-09T23:15:18.760Z,20.60
2019-03-09T23:17:48.140Z,27.23
2019-03-09T23:20:17.602Z,26.97
2019-03-09T23:22:47.083Z,25.60
2019-03-09T23:25:16.756Z,21.10
2019-03-09T23:27:46.117Z,22.87
2019-03-09T23:30:16.729Z,24.20
2019-03-09T23:32:46.573Z,25.93
2019-03-09T23:35:16.142Z,31.20
2019-03-09T23:37:45.804Z,21.73
2019-03-09T23:40:16.023Z,20.33
2019-03-09T23:42:45.326Z,14.03
2019-03-09T23:45:15.812Z,22.60
2019-03-09T23:47:45.125Z,28.53
2019-03-09T23:50:14.900Z,27.23
2019-03-09T23:52:44.638Z,23.63
2019-03-09T23:55:22.061Z,19.33
2019-03-09T23:57:45.945Z,23.87
